Time;durP1;ratioP1;P1;durP2;ratioP2;P2;SDS_P1;SDS_P2;PMS_P1;PMS_P2;Temp;Humidity;BMP_temperature;BMP_pressure;BME280_temperature;BME280_humidity;BME280_pressure;Samples;Min_cycle;Max_cycle;Signal;HPM_P1;HPM_P2
2021/01/17 00:01:26;;;;;;;38.72;17.42;;;;;;;-0.05;100.00;101562.41;5204477;28;20030;-68
2021/01/17 00:03:57;;;;;;;45.17;18.92;;;;;;;-0.03;100.00;101557.91;5200099;28;20520;-68
2021/01/17 00:06:29;;;;;;;40.38;18.08;;;;;;;-0.01;100.00;101563.94;5183462;28;20053;-68
2021/01/17 00:08:59;;;;;;;42.85;16.50;;;;;;;0.02;100.00;101565.56;5187775;28;20021;-68
2021/01/17 00:11:30;;;;;;;40.53;16.75;;;;;;;0.03;100.00;101561.13;5192150;28;20026;-68
2021/01/17 00:14:00;;;;;;;36.53;16.05;;;;;;;0.02;100.00;101562.94;5183071;28;20030;-68
2021/01/17 00:16:31;;;;;;;35.03;16.48;;;;;;;0.04;100.00;101557.56;5196373;28;20094;-68
2021/01/17 00:19:01;;;;;;;39.50;17.35;;;;;;;0.06;100.00;101558.34;5170855;28;20084;-68
2021/01/17 00:21:31;;;;;;;39.78;17.60;;;;;;;0.06;100.00;101558.34;5182463;28;20119;-68
2021/01/17 00:24:02;;;;;;;38.45;15.95;;;;;;;0.06;100.00;101561.00;5173873;28;20030;-68
2021/01/17 00:26:38;;;;;;;36.30;16.10;;;;;;;0.07;100.00;101568.81;5178699;28;20026;-68
2021/01/17 00:29:09;;;;;;;38.53;16.15;;;;;;;0.09;100.00;101561.66;5194705;28;20021;-68
2021/01/17 00:31:40;;;;;;;37.72;15.27;;;;;;;0.10;100.00;101563.38;5185397;28;20018;-68
2021/01/17 00:34:10;;;;;;;34.20;15.30;;;;;;;0.10;100.00;101565.16;5182179;28;20021;-67
2021/01/17 00:36:41;;;;;;;31.33;15.10;;;;;;;0.11;100.00;101559.81;5183218;28;20038;-68
2021/01/17 00:39:11;;;;;;;34.70;15.02;;;;;;;0.10;100.00;101562.50;5193101;28;20482;-68
2021/01/17 00:41:42;;;;;;;34.75;16.25;;;;;;;0.10;100.00;101554.59;5182882;28;20033;-68
2021/01/17 00:44:13;;;;;;;34.50;15.60;;;;;;;0.13;100.00;101551.81;5182242;28;20542;-68
2021/01/17 00:46:43;;;;;;;37.08;15.50;;;;;;;0.09;100.00;101558.16;5182844;28;20049;-68
2021/01/17 00:49:14;;;;;;;38.00;16.48;;;;;;;0.09;100.00;101563.44;5185623;28;20057;-67
2021/01/17 00:51:45;;;;;;;38.00;15.70;;;;;;;0.10;100.00;101559.88;5203295;28;20017;-67
2021/01/17 00:54:16;;;;;;;37.30;16.35;;;;;;;0.13;100.00;101555.28;5185716;28;20048;-67
2021/01/17 00:56:46;;;;;;;38.83;16.55;;;;;;;0.13;100.00;101555.28;5182289;28;20308;-67
2021/01/17 00:59:17;;;;;;;40.30;17.45;;;;;;;0.13;100.00;101552.66;5187284;28;20534;-67
2021/01/17 01:01:48;;;;;;;36.72;15.50;;;;;;;0.13;100.00;101551.81;5191404;28;20030;-67
2021/01/17 01:04:18;;;;;;;38.47;16.25;;;;;;;0.15;100.00;101553.44;5187954;28;20029;-67
2021/01/17 01:06:51;;;;;;;36.92;15.90;;;;;;;0.16;100.00;101546.38;5202747;28;20061;-67
2021/01/17 01:09:22;;;;;;;33.72;15.15;;;;;;;0.16;100.00;101541.94;5195379;28;20503;-67
2021/01/17 01:11:53;;;;;;;36.42;16.10;;;;;;;0.16;100.00;101541.94;5182385;28;20547;-67
2021/01/17 01:14:23;;;;;;;37.28;17.30;;;;;;;0.18;100.00;101547.13;5190999;28;20152;-67
2021/01/17 01:16:54;;;;;;;40.63;17.17;;;;;;;0.19;100.00;101544.41;5196673;28;20026;-67
2021/01/17 01:19:25;;;;;;;36.17;16.15;;;;;;;0.19;100.00;101541.75;5182574;28;20546;-66
2021/01/17 01:21:56;;;;;;;38.15;15.95;;;;;;;0.20;100.00;101532.94;5202304;28;20156;-68
2021/01/17 01:24:26;;;;;;;32.38;14.95;;;;;;;0.19;100.00;101541.75;5190410;28;20387;-67
2021/01/17 01:26:57;;;;;;;34.08;14.85;;;;;;;0.19;100.00;101539.13;5201482;28;20017;-66
2021/01/17 01:29:28;;;;;;;38.50;16.10;;;;;;;0.20;100.00;101527.66;5202889;28;20017;-67
2021/01/17 01:31:58;;;;;;;38.55;16.63;;;;;;;0.09;100.00;101524.72;5202267;28;20036;-66
2021/01/17 01:34:29;;;;;;;40.72;18.17;;;;;;;0.12;100.00;101527.22;5186772;28;20403;-66
2021/01/17 01:36:59;;;;;;;37.63;17.15;;;;;;;0.15;100.00;101519.13;5190567;28;20025;-66
2021/01/17 01:39:29;;;;;;;44.30;18.13;;;;;;;0.17;100.00;101522.53;5180169;28;20116;-66
2021/01/17 01:42:05;;;;;;;48.67;17.90;;;;;;;0.20;100.00;101529.41;5181900;28;20030;-67
2021/01/17 01:44:35;;;;;;;45.67;17.58;;;;;;;0.20;100.00;101525.03;5185598;28;20037;-67
2021/01/17 01:47:14;;;;;;;40.40;16.73;;;;;;;0.22;100.00;101535.47;5201758;28;20029;-66
2021/01/17 01:49:45;;;;;;;37.13;15.90;;;;;;;0.26;100.00;101542.31;5202666;28;20039;-67
2021/01/17 01:52:16;;;;;;;36.95;15.45;;;;;;;0.28;100.00;101544.84;5200542;28;20041;-66
2021/01/17 01:54:47;;;;;;;42.38;16.75;;;;;;;0.26;100.00;101552.84;5181218;28;20022;-66
2021/01/17 01:57:18;;;;;;;37.72;17.42;;;;;;;0.27;100.00;101540.50;5183374;28;20053;-66
2021/01/17 01:59:49;;;;;;;39.55;17.00;;;;;;;0.26;100.00;101552.84;5202851;28;20126;-67
2021/01/17 02:02:21;;;;;;;41.95;18.00;;;;;;;0.24;100.00;101545.00;5201746;28;20022;-66
2021/01/17 02:04:52;;;;;;;40.10;17.63;;;;;;;0.21;100.00;101546.97;5200979;28;20024;-66
2021/01/17 02:07:45;;;;;;;48.05;18.73;;;;;;;0.22;100.00;101549.53;5201488;28;20479;-66
2021/01/17 02:10:17;;;;;;;44.75;17.23;;;;;;;0.27;100.00;101559.84;5202580;28;20025;-66
2021/01/17 02:12:58;;;;;;;44.60;18.52;;;;;;;0.25;100.00;101554.66;5201365;28;20021;-68
2021/01/17 02:15:33;;;;;;;42.88;17.00;;;;;;;0.25;100.00;101549.38;5202477;28;20034;-66
2021/01/17 02:18:05;;;;;;;47.45;19.58;;;;;;;0.24;100.00;101554.72;5188726;28;20487;-67
2021/01/17 02:20:39;;;;;;;45.90;18.60;;;;;;;0.26;100.00;101547.59;5188678;28;20033;-66
2021/01/17 02:23:35;;;;;;;44.00;17.88;;;;;;;0.26;100.00;101550.22;5179847;28;20018;-66
2021/01/17 02:26:07;;;;;;;48.42;19.17;;;;;;;0.29;100.00;101552.69;5186560;28;20027;-67
2021/01/17 02:28:39;;;;;;;54.08;18.65;;;;;;;0.30;100.00;101545.59;5194627;28;20049;-66
2021/01/17 02:31:11;;;;;;;51.55;19.58;;;;;;;0.31;100.00;101537.63;5195527;28;20044;-66
2021/01/17 02:33:45;;;;;;;51.22;19.83;;;;;;;0.32;100.00;101543.75;5201056;28;20451;-67
2021/01/17 02:36:29;;;;;;;52.33;19.58;;;;;;;0.34;100.00;101537.44;5186218;28;20072;-67
2021/01/17 02:39:16;;;;;;;47.63;17.65;;;;;;;0.37;100.00;101533.78;5177611;28;20444;-67
2021/01/17 02:42:01;;;;;;;47.72;18.65;;;;;;;0.37;100.00;101531.16;5181939;28;20022;-66
2021/01/17 02:44:33;;;;;;;47.88;17.90;;;;;;;0.38;100.00;101527.56;5193347;28;20061;-67
2021/01/17 02:47:04;;;;;;;52.67;17.58;;;;;;;0.38;100.00;101523.16;5181850;28;20509;-67
2021/01/17 02:49:36;;;;;;;53.22;17.88;;;;;;;0.41;100.00;101522.13;5194299;28;20391;-67
2021/01/17 02:52:07;;;;;;;56.35;20.30;;;;;;;0.40;100.00;101523.94;5198565;28;20021;-67
2021/01/17 02:54:41;;;;;;;50.88;18.63;;;;;;;0.43;100.00;101528.19;5204956;28;20021;-67
2021/01/17 02:57:13;;;;;;;47.58;17.98;;;;;;;0.43;100.00;101528.19;5205915;28;20513;-67
2021/01/17 02:59:54;;;;;;;57.70;20.30;;;;;;;0.45;100.00;101527.16;5205232;28;20025;-67
2021/01/17 03:02:31;;;;;;;52.72;18.77;;;;;;;0.47;100.00;101527.91;5201425;28;20033;-67
2021/01/17 03:05:05;;;;;;;48.65;18.00;;;;;;;0.48;100.00;101540.19;5196407;28;20017;-67
2021/01/17 03:07:36;;;;;;;52.42;18.20;;;;;;;0.49;100.00;101535.75;5205629;28;20044;-68
2021/01/17 03:10:09;;;;;;;54.22;18.55;;;;;;;0.47;100.00;101527.91;5191927;28;20021;-67
2021/01/17 03:12:40;;;;;;;52.20;19.15;;;;;;;0.49;100.00;101527.81;5205209;28;20041;-68
2021/01/17 03:15:12;;;;;;;59.00;20.67;;;;;;;0.47;100.00;101525.28;5204847;28;20021;-67
2021/01/17 03:17:44;;;;;;;52.45;18.85;;;;;;;0.50;100.00;101532.16;5196066;28;20022;-67
2021/01/17 03:20:14;;;;;;;52.65;18.80;;;;;;;0.52;100.00;101531.16;5201202;28;20026;-67
2021/01/17 03:22:45;;;;;;;52.38;19.38;;;;;;;0.56;100.00;101538.91;5193983;28;20095;-67
2021/01/17 03:25:15;;;;;;;54.40;18.27;;;;;;;0.55;100.00;101532.75;5176373;28;20018;-67
2021/01/17 03:27:46;;;;;;;57.13;19.17;;;;;;;0.57;100.00;101541.47;5202289;28;20487;-69
2021/01/17 03:30:16;;;;;;;56.90;19.02;;;;;;;0.59;100.00;101523.75;5203428;28;20026;-68
2021/01/17 03:32:47;;;;;;;58.22;20.48;;;;;;;0.60;100.00;101530.72;5190241;28;20495;-67
2021/01/17 03:35:17;;;;;;;59.22;19.33;;;;;;;0.63;100.00;101521.78;5191902;28;20547;-67
2021/01/17 03:37:48;;;;;;;60.33;20.13;;;;;;;0.65;100.00;101526.06;5200099;28;20412;-67
2021/01/17 03:40:18;;;;;;;60.35;20.25;;;;;;;0.68;100.00;101531.16;5195016;28;20030;-69
2021/01/17 03:42:49;;;;;;;72.18;21.92;;;;;;;0.73;100.00;101539.66;5183792;28;20030;-68
2021/01/17 03:45:19;;;;;;;90.20;22.13;;;;;;;0.73;100.00;101533.53;5184239;28;20557;-67
2021/01/17 03:47:50;;;;;;;60.00;19.70;;;;;;;0.82;100.00;101537.47;5184019;28;20184;-67
2021/01/17 03:50:20;;;;;;;73.78;21.73;;;;;;;0.75;100.00;101536.94;5184172;28;20022;-67
2021/01/17 03:52:51;;;;;;;74.93;21.40;;;;;;;0.75;100.00;101545.72;5183748;28;20036;-68
2021/01/17 03:55:21;;;;;;;81.13;21.23;;;;;;;0.74;100.00;101546.66;5196933;28;20025;-67
2021/01/17 03:57:52;;;;;;;86.70;21.98;;;;;;;0.71;100.00;101546.00;5198144;28;20083;-67
2021/01/17 04:00:22;;;;;;;75.25;21.52;;;;;;;0.75;100.00;101539.56;5183917;28;20494;-67
2021/01/17 04:02:53;;;;;;;111.55;25.10;;;;;;;0.80;100.00;101545.44;5203553;28;20541;-67
2021/01/17 04:05:23;;;;;;;100.03;23.98;;;;;;;0.80;100.00;101548.09;5201976;28;20048;-67
2021/01/17 04:07:54;;;;;;;107.45;24.45;;;;;;;0.80;100.00;101544.59;5193680;28;20418;-67
2021/01/17 04:10:25;;;;;;;122.63;25.33;;;;;;;0.81;100.00;101538.41;5187426;28;20045;-67
2021/01/17 04:12:55;;;;;;;104.38;24.42;;;;;;;0.84;100.00;101551.41;5193578;28;20041;-67
2021/01/17 04:15:26;;;;;;;98.32;25.77;;;;;;;0.88;100.00;101550.31;5199822;28;20065;-67
2021/01/17 04:17:57;;;;;;;133.38;28.67;;;;;;;0.91;100.00;101547.50;5172629;28;20026;-67
2021/01/17 04:20:27;;;;;;;114.32;27.52;;;;;;;0.93;100.00;101548.25;5187633;28;20033;-67
2021/01/17 04:23:01;;;;;;;100.53;27.08;;;;;;;1.04;100.00;101540.56;5202623;28;20029;-68
2021/01/17 04:25:32;;;;;;;131.40;28.48;;;;;;;1.10;100.00;101552.56;5170862;28;20022;-67
2021/01/17 04:28:02;;;;;;;107.55;27.20;;;;;;;1.16;100.00;101550.44;5196879;28;20421;-67
2021/01/17 04:30:34;;;;;;;130.13;30.05;;;;;;;1.20;100.00;101551.94;5192729;28;20518;-67
2021/01/17 04:33:04;;;;;;;149.90;30.25;;;;;;;1.15;100.00;101554.00;5186380;28;20026;-67
2021/01/17 04:35:35;;;;;;;145.63;31.85;;;;;;;1.12;100.00;101548.06;5193764;28;20404;-68
2021/01/17 04:38:06;;;;;;;121.75;29.83;;;;;;;1.18;100.00;101545.91;5198705;28;20391;-68
2021/01/17 04:40:36;;;;;;;184.25;33.55;;;;;;;1.20;100.00;101554.59;5203637;28;20040;-67
2021/01/17 04:43:16;;;;;;;186.15;32.88;;;;;;;1.21;100.00;101556.31;5202868;28;20017;-67
2021/01/17 04:45:48;;;;;;;173.90;33.80;;;;;;;1.23;100.00;101561.50;5188568;28;20026;-67
2021/01/17 04:48:20;;;;;;;214.10;36.53;;;;;;;1.28;100.00;101551.50;5191755;28;20029;-67
2021/01/17 04:50:57;;;;;;;192.52;35.25;;;;;;;1.29;100.00;101556.72;5189843;28;20168;-67
2021/01/17 04:53:29;;;;;;;212.48;36.40;;;;;;;1.32;100.00;101549.56;5202980;28;20117;-68
2021/01/17 04:56:17;;;;;;;185.25;36.78;;;;;;;1.33;100.00;101543.31;5202858;28;20079;-68
2021/01/17 04:59:04;;;;;;;215.57;35.03;;;;;;;1.37;100.00;101550.13;5203266;28;20035;-67
2021/01/17 05:01:47;;;;;;;262.02;39.53;;;;;;;1.41;100.00;101556.97;5192381;28;20511;-67
2021/01/17 05:04:48;;;;;;;198.00;35.83;;;;;;;1.40;100.00;101555.22;5201775;28;20020;-67
2021/01/17 05:07:23;;;;;;;254.10;39.38;;;;;;;1.40;100.00;101550.78;5203633;28;20479;-68
2021/01/17 05:10:03;;;;;;;236.93;42.67;;;;;;;1.40;100.00;101561.38;5203037;28;20029;-67
2021/01/17 05:12:39;;;;;;;279.50;45.60;;;;;;;1.44;100.00;101557.59;5203935;28;20127;-67
2021/01/17 05:15:09;;;;;;;245.38;60.25;;;;;;;1.51;100.00;101558.13;5186119;28;20112;-67
2021/01/17 05:17:41;;;;;;;282.00;48.20;;;;;;;1.48;100.00;101560.94;5182563;28;20109;-68
2021/01/17 05:20:12;;;;;;;191.27;47.00;;;;;;;1.51;100.00;101558.97;5182322;28;20452;-68
2021/01/17 05:22:43;;;;;;;226.45;47.53;;;;;;;1.58;100.00;101558.59;5182264;28;20029;-69
2021/01/17 05:25:17;;;;;;;165.32;40.75;;;;;;;1.64;100.00;101563.50;5174542;28;20017;-67
2021/01/17 05:27:49;;;;;;;171.77;42.92;;;;;;;1.62;100.00;101563.63;5189114;28;20496;-67
2021/01/17 05:30:19;;;;;;;201.15;59.13;;;;;;;1.66;100.00;101567.78;5182575;28;20121;-67
2021/01/17 05:32:52;;;;;;;170.77;46.38;;;;;;;1.69;100.00;101562.28;5194561;28;20108;-67
2021/01/17 05:35:24;;;;;;;151.10;38.65;;;;;;;1.70;100.00;101564.00;5181160;28;20045;-69
2021/01/17 05:37:55;;;;;;;149.98;39.28;;;;;;;1.70;100.00;101577.22;5189939;28;20547;-68
2021/01/17 05:40:32;;;;;;;145.55;37.05;;;;;;;1.72;100.00;101574.50;5181795;28;20062;-67
2021/01/17 05:43:08;;;;;;;143.02;39.58;;;;;;;1.75;100.00;101572.50;5181565;28;20060;-68
2021/01/17 05:45:38;;;;;;;131.10;34.03;;;;;;;1.80;100.00;101564.28;5181933;28;20072;-68
2021/01/17 05:48:10;;;;;;;142.73;37.83;;;;;;;1.83;100.00;101569.41;5202748;28;20033;-69
2021/01/17 05:50:43;;;;;;;138.70;35.67;;;;;;;1.84;100.00;101575.53;5200414;28;20108;-68
2021/01/17 05:53:14;;;;;;;137.63;32.28;;;;;;;1.83;100.00;101590.56;5181146;28;20076;-68
2021/01/17 05:55:45;;;;;;;121.07;32.97;;;;;;;1.84;100.00;101584.34;5184901;28;20483;-68
2021/01/17 05:58:27;;;;;;;127.60;37.38;;;;;;;1.84;100.00;101586.97;5192343;28;20017;-69
2021/01/17 06:01:01;;;;;;;125.65;33.75;;;;;;;1.86;100.00;101587.75;5181270;28;20432;-68
2021/01/17 06:03:32;;;;;;;137.00;31.65;;;;;;;1.91;100.00;101593.63;5181569;28;20060;-70
2021/01/17 06:06:05;;;;;;;134.65;39.63;;;;;;;1.98;100.00;101599.38;5168738;28;20053;-68
2021/01/17 06:08:38;;;;;;;113.20;35.20;;;;;;;2.06;100.00;101602.44;5194927;28;20025;-68
2021/01/17 06:11:11;;;;;;;103.03;27.77;;;;;;;2.09;100.00;101607.53;5190706;28;20033;-68
2021/01/17 06:13:42;;;;;;;105.65;29.20;;;;;;;2.14;100.00;101609.91;5200889;28;20079;-69
2021/01/17 06:16:25;;;;;;;101.32;26.17;;;;;;;2.26;100.00;101620.59;5202072;28;20057;-68
2021/01/17 06:18:58;;;;;;;94.45;25.33;;;;;;;2.25;100.00;101618.88;5182198;28;20030;-68
2021/01/17 06:21:30;;;;;;;102.93;27.05;;;;;;;2.29;100.00;101627.50;5181557;28;20518;-69
2021/01/17 06:24:03;;;;;;;104.68;26.52;;;;;;;2.31;100.00;101629.13;5172114;28;20054;-68
2021/01/17 06:26:36;;;;;;;154.15;58.65;;;;;;;2.31;100.00;101622.97;5190476;28;20030;-68
2021/01/17 06:29:09;;;;;;;314.75;152.15;;;;;;;2.40;100.00;101626.81;5181893;28;20101;-69
2021/01/17 06:31:40;;;;;;;217.15;97.72;;;;;;;2.44;100.00;101623.03;5181262;28;20491;-69
2021/01/17 06:34:13;;;;;;;139.35;55.92;;;;;;;2.45;100.00;101625.59;5180708;28;20026;-69
2021/01/17 06:36:46;;;;;;;86.82;23.23;;;;;;;2.44;100.00;101623.91;5200472;28;20029;-68
2021/01/17 06:39:24;;;;;;;71.75;21.90;;;;;;;2.43;100.00;101627.50;5181759;28;20045;-68
2021/01/17 06:41:57;;;;;;;71.43;19.30;;;;;;;2.41;100.00;101631.16;5181559;28;20534;-68
2021/01/17 06:44:30;;;;;;;69.40;19.60;;;;;;;2.39;100.00;101631.28;5180709;28;20022;-68
2021/01/17 06:47:02;;;;;;;72.35;20.75;;;;;;;2.36;100.00;101636.78;5181000;28;20440;-69
2021/01/17 06:49:36;;;;;;;65.63;18.45;;;;;;;2.33;100.00;101637.81;5181636;28;20064;-69
2021/01/17 06:52:08;;;;;;;293.63;126.43;;;;;;;2.34;100.00;101636.00;5194565;28;20510;-69
2021/01/17 06:54:41;;;;;;;101.88;35.08;;;;;;;2.39;100.00;101636.56;5199730;28;20026;-69
2021/01/17 06:57:12;;;;;;;136.35;44.03;;;;;;;2.45;100.00;101640.63;5201019;28;20029;-69
2021/01/17 06:59:48;;;;;;;81.53;23.98;;;;;;;2.57;100.00;101647.84;5173001;28;20029;-69
2021/01/17 07:02:25;;;;;;;108.38;38.58;;;;;;;2.59;100.00;101643.28;5172786;28;20040;-69
2021/01/17 07:05:08;;;;;;;85.13;25.15;;;;;;;2.52;100.00;101656.06;5198692;28;20052;-69
2021/01/17 07:07:46;;;;;;;56.30;18.40;;;;;;;2.49;100.00;101655.41;5198597;28;20029;-69
2021/01/17 07:10:22;;;;;;;66.72;15.80;;;;;;;2.46;100.00;101658.22;5199450;28;20025;-68
2021/01/17 07:13:05;;;;;;;71.82;15.75;;;;;;;2.56;100.00;101654.94;5198310;28;20029;-69
2021/01/17 07:15:38;;;;;;;81.60;28.55;;;;;;;2.68;100.00;101655.97;5198852;28;20475;-69
2021/01/17 07:18:11;;;;;;;84.75;27.33;;;;;;;2.76;100.00;101663.41;5184604;28;20030;-70
2021/01/17 07:20:45;;;;;;;67.55;18.85;;;;;;;2.72;100.00;101665.44;5166385;28;20080;-69
2021/01/17 07:23:17;;;;;;;64.10;18.55;;;;;;;2.72;100.00;101673.38;5177371;28;20120;-68
2021/01/17 07:25:48;;;;;;;59.83;13.30;;;;;;;2.69;100.00;101675.34;5178536;28;20030;-68
2021/01/17 07:28:21;;;;;;;47.05;10.35;;;;;;;2.64;100.00;101673.00;5177653;28;20116;-69
2021/01/17 07:31:01;;;;;;;33.72;8.85;;;;;;;2.58;100.00;101686.63;5178340;28;20040;-68
2021/01/17 07:33:36;;;;;;;47.33;9.43;;;;;;;2.59;100.00;101694.47;5197347;28;20075;-69
2021/01/17 07:36:10;;;;;;;44.27;12.80;;;;;;;2.53;100.00;101691.34;5196533;28;20112;-68
2021/01/17 07:38:43;;;;;;;72.57;29.23;;;;;;;2.50;100.00;101692.38;5181220;28;20026;-67
2021/01/17 07:41:14;;;;;;;32.20;10.38;;;;;;;2.45;100.00;101699.75;5181557;28;20123;-68
2021/01/17 07:43:45;;;;;;;42.13;9.50;;;;;;;2.44;100.00;101707.81;5180861;28;20104;-68
2021/01/17 07:46:17;;;;;;;47.85;14.35;;;;;;;2.47;100.00;101712.94;5181611;28;20030;-68
2021/01/17 07:48:49;;;;;;;37.33;15.02;;;;;;;2.44;100.00;101713.94;5182023;28;20076;-68
2021/01/17 07:51:19;;;;;;;55.85;16.40;;;;;;;2.42;100.00;101717.66;5188478;28;20487;-68
2021/01/17 07:53:52;;;;;;;49.38;14.80;;;;;;;2.43;100.00;101719.34;5200639;28;20105;-68
2021/01/17 07:56:31;;;;;;;55.42;14.57;;;;;;;2.40;100.00;101723.00;5201973;28;20554;-68
2021/01/17 07:59:04;;;;;;;33.17;9.82;;;;;;;2.40;100.00;101725.66;5184524;28;20065;-69
2021/01/17 08:01:35;;;;;;;61.70;17.83;;;;;;;2.36;100.00;101726.81;5182170;28;20017;-67
2021/01/17 08:04:05;;;;;;;65.55;25.90;;;;;;;2.38;100.00;101735.50;5198073;28;20039;-67
2021/01/17 08:06:35;;;;;;;55.55;17.77;;;;;;;2.42;100.00;101739.69;5201916;28;20071;-68
2021/01/17 08:09:09;;;;;;;48.63;14.00;;;;;;;2.49;100.00;101745.47;5195238;28;20449;-68
2021/01/17 08:11:55;;;;;;;41.75;12.05;;;;;;;2.48;100.00;101743.75;5195928;28;20025;-69
2021/01/17 08:14:29;;;;;;;54.08;16.13;;;;;;;2.50;100.00;101755.94;5199863;28;20029;-68
2021/01/17 08:17:10;;;;;;;60.35;15.63;;;;;;;2.54;100.00;101761.94;5179950;28;20026;-68
2021/01/17 08:19:56;;;;;;;63.78;21.70;;;;;;;2.67;100.00;101768.19;5174041;28;20030;-67
2021/01/17 08:22:28;;;;;;;56.63;19.65;;;;;;;2.69;100.00;101774.25;5181400;28;20034;-67
2021/01/17 08:25:01;;;;;;;52.72;12.95;;;;;;;2.72;100.00;101782.03;5166658;28;20391;-68
2021/01/17 08:27:34;;;;;;;62.05;16.67;;;;;;;2.84;100.00;101775.97;5181147;28;20160;-69
2021/01/17 08:30:10;;;;;;;48.05;11.98;;;;;;;2.84;100.00;101785.72;5180745;28;20042;-69
2021/01/17 08:32:44;;;;;;;49.65;12.75;;;;;;;2.89;100.00;101778.34;5179437;28;20037;-68
2021/01/17 08:35:15;;;;;;;69.70;17.98;;;;;;;2.92;100.00;101783.47;5178628;28;20026;-69
2021/01/17 08:37:49;;;;;;;201.07;66.45;;;;;;;2.94;100.00;101781.56;5178153;28;20030;-67
2021/01/17 08:40:28;;;;;;;141.05;44.75;;;;;;;2.99;100.00;101789.22;5180315;28;20084;-68
2021/01/17 08:43:01;;;;;;;74.28;21.92;;;;;;;2.98;100.00;101784.88;5198115;28;20044;-67
2021/01/17 08:45:33;;;;;;;69.50;15.23;;;;;;;3.05;100.00;101786.19;5199659;28;20063;-69
2021/01/17 08:48:16;;;;;;;68.63;25.92;;;;;;;3.12;100.00;101790.19;5180778;28;20056;-68
2021/01/17 08:50:50;;;;;;;50.60;18.10;;;;;;;3.15;100.00;101789.13;5180618;28;20049;-68
2021/01/17 08:53:21;;;;;;;58.78;16.95;;;;;;;3.23;100.00;101794.81;5180093;28;20472;-68
2021/01/17 08:55:53;;;;;;;70.78;30.67;;;;;;;3.29;100.00;101792.63;5197018;28;20029;-68
2021/01/17 08:58:24;;;;;;;49.10;10.23;;;;;;;3.26;100.00;101805.22;5200559;28;20037;-68
2021/01/17 09:00:55;;;;;;;44.80;10.00;;;;;;;3.24;100.00;101804.47;5200829;28;20030;-68
2021/01/17 09:03:36;;;;;;;69.45;28.25;;;;;;;3.27;100.00;101821.06;5186892;28;20553;-69
2021/01/17 09:06:07;;;;;;;61.58;15.68;;;;;;;3.30;100.00;101826.16;5179442;28;20034;-68
2021/01/17 09:08:40;;;;;;;44.13;15.63;;;;;;;3.33;100.00;101823.31;5179680;28;20419;-68
2021/01/17 09:11:29;;;;;;;58.15;22.02;;;;;;;3.45;100.00;101834.09;5179819;28;20026;-69
2021/01/17 09:14:23;;;;;;;64.95;18.80;;;;;;;3.50;100.00;101847.94;5179411;28;20180;-68
2021/01/17 09:17:01;;;;;;;49.40;14.23;;;;;;;3.45;100.00;101842.06;5178953;28;20091;-68
2021/01/17 09:19:33;;;;;;;47.55;15.80;;;;;;;3.43;100.00;101846.63;5180423;28;20022;-68
2021/01/17 09:22:06;;;;;;;51.83;17.95;;;;;;;3.49;100.00;101847.06;5179742;28;20029;-68
2021/01/17 09:24:38;;;;;;;53.58;18.52;;;;;;;3.50;100.00;101847.94;5165431;28;20033;-68
2021/01/17 09:27:10;;;;;;;35.60;13.43;;;;;;;3.51;100.00;101853.13;5179295;28;20025;-68
2021/01/17 09:29:41;;;;;;;48.17;17.60;;;;;;;3.53;100.00;101855.72;5179798;28;20033;-68
2021/01/17 09:32:14;;;;;;;38.10;11.88;;;;;;;3.51;100.00;101866.41;5179644;28;20117;-67
2021/01/17 09:34:47;;;;;;;47.15;11.20;;;;;;;3.51;100.00;101860.25;5178477;28;20026;-67
2021/01/17 09:37:19;;;;;;;95.40;35.00;;;;;;;3.56;100.00;101869.59;5178210;28;20459;-69
2021/01/17 09:39:51;;;;;;;51.45;13.20;;;;;;;3.64;100.00;101874.44;5176801;28;20053;-68
2021/01/17 09:42:24;;;;;;;65.60;16.13;;;;;;;3.74;100.00;101880.88;5179774;28;20030;-67
2021/01/17 09:44:57;;;;;;;58.85;18.67;;;;;;;3.82;100.00;101886.56;5183877;28;20022;-68
2021/01/17 09:47:28;;;;;;;49.47;14.43;;;;;;;3.88;100.00;101890.63;5199325;28;20032;-68
2021/01/17 09:50:10;;;;;;;61.45;12.50;;;;;;;3.99;100.00;101901.41;5200212;28;20048;-68
2021/01/17 09:52:41;;;;;;;65.80;25.35;;;;;;;4.02;100.00;101903.88;5199267;28;20061;-68
2021/01/17 09:55:12;;;;;;;38.28;10.50;;;;;;;4.04;100.00;101907.28;5198650;28;20434;-68
2021/01/17 09:57:42;;;;;;;37.38;12.70;;;;;;;4.02;100.00;101903.88;5193393;28;20061;-68
2021/01/17 10:00:20;;;;;;;52.00;15.40;;;;;;;4.06;100.00;101913.34;5179314;28;20072;-68
2021/01/17 10:02:50;;;;;;;57.45;17.75;;;;;;;4.13;100.00;101919.97;5173567;28;20025;-68
2021/01/17 10:05:26;;;;;;;56.22;16.50;;;;;;;4.21;100.00;101918.63;5199280;28;20025;-69
2021/01/17 10:07:59;;;;;;;60.70;12.88;;;;;;;4.33;100.00;101920.50;5199865;28;20100;-69
2021/01/17 10:10:30;;;;;;;67.75;14.85;;;;;;;4.50;100.00;101924.69;5199706;28;20021;-68
2021/01/17 10:13:00;;;;;;;45.90;13.27;;;;;;;4.58;100.00;101931.22;5198458;28;20036;-69
2021/01/17 10:15:31;;;;;;;43.25;11.88;;;;;;;4.72;100.00;101930.31;5180184;28;20526;-69
2021/01/17 10:18:03;;;;;;;46.58;9.30;;;;;;;4.85;100.00;101928.53;5167408;28;20468;-68
2021/01/17 10:20:38;;;;;;;61.80;16.38;;;;;;;4.96;100.00;101932.28;5178599;28;20079;-69
2021/01/17 10:23:12;;;;;;;71.60;27.60;;;;;;;5.08;100.00;101936.78;5190012;28;20079;-69
2021/01/17 10:25:45;;;;;;;105.43;35.20;;;;;;;5.05;100.00;101934.31;5177877;28;20089;-69
2021/01/17 10:28:17;;;;;;;50.50;20.10;;;;;;;5.10;100.00;101937.50;5182546;28;20109;-68
2021/01/17 10:30:50;;;;;;;41.42;13.70;;;;;;;5.16;100.00;101940.59;5196736;28;20044;-68
2021/01/17 10:33:21;;;;;;;42.75;9.70;;;;;;;5.29;100.00;101939.78;5196256;28;20438;-70
2021/01/17 10:35:51;;;;;;;38.00;11.65;;;;;;;5.38;100.00;101939.16;5172176;28;20030;-69
2021/01/17 10:38:22;;;;;;;48.30;10.82;;;;;;;5.40;100.00;101948.72;5176659;28;20034;-68
2021/01/17 10:40:53;;;;;;;31.38;8.40;;;;;;;5.39;100.00;101947.03;5194006;28;20457;-69
2021/01/17 10:43:30;;;;;;;158.15;54.80;;;;;;;5.48;100.00;101955.34;5200111;28;20036;-68
2021/01/17 10:46:09;;;;;;;60.10;17.23;;;;;;;5.65;100.00;101955.00;5196284;28;20029;-69
2021/01/17 10:48:52;;;;;;;33.22;11.52;;;;;;;5.80;100.00;101956.59;5179309;28;20042;-69
2021/01/17 10:51:34;;;;;;;33.55;12.68;;;;;;;5.85;100.00;101958.94;5199208;28;20037;-69
2021/01/17 10:54:06;;;;;;;50.58;23.55;;;;;;;5.82;100.00;101965.31;5199155;28;20091;-69
2021/01/17 10:56:38;;;;;;;57.97;15.45;;;;;;;6.00;100.00;101967.66;5190642;28;20022;-68
2021/01/17 10:59:11;;;;;;;32.85;9.50;;;;;;;6.14;100.00;101962.22;5192650;28;20403;-69
2021/01/17 11:01:46;;;;;;;38.05;8.05;;;;;;;6.22;100.00;101966.03;5190094;28;20053;-69
2021/01/17 11:04:17;;;;;;;42.45;9.57;;;;;;;6.25;100.00;101966.75;5180110;28;20490;-69
2021/01/17 11:06:48;;;;;;;35.22;6.97;;;;;;;6.37;100.00;101971.19;5193111;28;20140;-69
2021/01/17 11:09:22;;;;;;;33.58;10.23;;;;;;;6.45;100.00;101972.34;5186779;28;20398;-69
2021/01/17 11:11:52;;;;;;;28.02;6.32;;;;;;;6.45;100.00;101974.16;5200533;28;20442;-69
2021/01/17 11:14:27;;;;;;;22.65;5.55;;;;;;;6.42;100.00;101977.88;5203418;28;20030;-69
2021/01/17 11:16:59;;;;;;;22.55;6.28;;;;;;;6.31;100.00;101974.31;5201948;28;20068;-70
2021/01/17 11:19:36;;;;;;;26.85;5.35;;;;;;;6.23;100.00;101972.22;5194179;28;20072;-69
2021/01/17 11:22:07;;;;;;;27.85;5.38;;;;;;;6.30;100.00;101978.78;5201017;28;20029;-70
2021/01/17 11:24:40;;;;;;;27.95;6.97;;;;;;;6.30;100.00;101978.78;5174841;28;20027;-69
2021/01/17 11:27:13;;;;;;;28.42;5.40;;;;;;;6.33;100.00;101980.41;5191848;28;20064;-69
2021/01/17 11:29:44;;;;;;;68.85;26.95;;;;;;;6.40;100.00;101982.50;5187066;28;20514;-69
2021/01/17 11:32:27;;;;;;;55.17;18.02;;;;;;;6.48;100.00;101989.94;5183915;28;20038;-69
2021/01/17 11:34:58;;;;;;;34.15;9.63;;;;;;;6.56;100.00;101986.69;5201315;28;20048;-70